Time;durP1;ratioP1;P1;durP2;ratioP2;P2;SDS_P1;SDS_P2;PMS_P1;PMS_P2;Temp;Humidity;BMP_temperature;BMP_pressure;BME280_temperature;BME280_humidity;BME280_pressure;Samples;Min_cycle;Max_cycle;Signal;HPM_P1;HPM_P2
2022/01/01 00:01:29;;;;;;;27.27;20.13;;;10.50;99.90;;;;;;5089685;28;20213;-70
2022/01/01 00:03:56;;;;;;;24.70;18.93;;;10.50;99.90;;;;;;5082436;28;20208;-70
2022/01/01 00:06:23;;;;;;;22.57;17.37;;;10.50;99.90;;;;;;5086875;28;20665;-70
2022/01/01 00:08:50;;;;;;;21.87;17.67;;;10.50;99.90;;;;;;5092115;28;20291;-69
2022/01/01 00:11:17;;;;;;;19.40;15.37;;;10.60;99.90;;;;;;5091792;28;20208;-71
2022/01/01 00:13:44;;;;;;;18.00;14.27;;;10.50;99.90;;;;;;5091923;28;20215;-70
2022/01/01 00:16:11;;;;;;;15.37;11.97;;;10.50;99.90;;;;;;5092473;28;20197;-69
2022/01/01 00:18:39;;;;;;;15.73;12.70;;;10.50;99.90;;;;;;5092809;28;20212;-71
2022/01/01 00:21:07;;;;;;;15.20;11.13;;;10.50;99.90;;;;;;5101275;28;20563;-70
2022/01/01 00:23:34;;;;;;;11.30;9.17;;;10.50;99.90;;;;;;5094778;28;20220;-69
2022/01/01 00:26:01;;;;;;;10.67;8.67;;;10.60;99.90;;;;;;5082443;28;20630;-70
2022/01/01 00:28:28;;;;;;;8.53;7.30;;;10.60;99.90;;;;;;5092307;28;20713;-70
2022/01/01 00:30:55;;;;;;;8.53;6.63;;;10.60;99.90;;;;;;5093111;28;20200;-71
2022/01/01 00:33:22;;;;;;;7.93;5.80;;;10.60;99.90;;;;;;5092108;28;20298;-70
2022/01/01 00:35:50;;;;;;;5.93;4.63;;;10.60;99.90;;;;;;5088595;28;20655;-70
2022/01/01 00:38:17;;;;;;;6.37;4.90;;;10.70;99.90;;;;;;5092501;28;20208;-70
2022/01/01 00:40:44;;;;;;;4.90;4.30;;;10.70;99.90;;;;;;5092768;28;20842;-70
2022/01/01 00:43:11;;;;;;;4.70;4.07;;;10.80;99.90;;;;;;5092911;28;20629;-69
2022/01/01 00:45:38;;;;;;;9.30;4.17;;;10.70;99.90;;;;;;5091850;28;20224;-70
2022/01/01 00:48:06;;;;;;;4.47;4.07;;;10.70;99.90;;;;;;5091946;28;20205;-70
2022/01/01 00:50:32;;;;;;;4.53;4.10;;;10.70;99.90;;;;;;5092426;28;20200;-69
2022/01/01 00:53:02;;;;;;;6.50;4.00;;;10.70;99.90;;;;;;5104501;28;20203;-72
2022/01/01 00:55:29;;;;;;;5.83;4.10;;;10.70;99.90;;;;;;5078663;28;20207;-70
2022/01/01 00:57:56;;;;;;;6.20;4.23;;;10.80;99.90;;;;;;5092652;28;20228;-69
2022/01/01 01:00:23;;;;;;;4.73;4.27;;;10.80;99.90;;;;;;5091999;28;20200;-70
2022/01/01 01:02:50;;;;;;;5.00;4.03;;;10.80;99.90;;;;;;5091987;28;20211;-71
2022/01/01 01:05:16;;;;;;;4.93;4.33;;;10.80;99.90;;;;;;5102014;28;20291;-70
2022/01/01 01:07:43;;;;;;;4.47;4.00;;;10.80;99.90;;;;;;5092205;28;20204;-69
2022/01/01 01:10:13;;;;;;;5.67;4.73;;;10.80;99.90;;;;;;5092165;28;20215;-71
2022/01/01 01:12:43;;;;;;;8.70;4.57;;;10.80;99.90;;;;;;5092125;28;20653;-70
2022/01/01 01:15:16;;;;;;;4.90;4.37;;;10.80;99.90;;;;;;5092249;28;20204;-71
2022/01/01 01:17:44;;;;;;;5.10;4.60;;;10.80;99.90;;;;;;5091412;28;20201;-69
2022/01/01 01:20:12;;;;;;;6.90;4.40;;;10.80;99.90;;;;;;5091074;28;20235;-69
2022/01/01 01:22:39;;;;;;;5.43;4.50;;;10.80;99.90;;;;;;5076899;28;20208;-70
2022/01/01 01:25:07;;;;;;;4.10;3.70;;;10.80;99.90;;;;;;5091119;28;20327;-71
2022/01/01 01:27:36;;;;;;;6.17;4.33;;;10.80;99.90;;;;;;5092238;28;20706;-70
2022/01/01 01:30:05;;;;;;;4.70;4.00;;;10.80;99.90;;;;;;5092857;28;20243;-70
2022/01/01 01:32:32;;;;;;;5.07;4.20;;;10.70;99.90;;;;;;5092264;28;20381;-71
2022/01/01 01:34:59;;;;;;;4.73;3.83;;;10.70;99.90;;;;;;5090914;28;20264;-72
2022/01/01 01:37:27;;;;;;;6.00;3.87;;;10.70;99.90;;;;;;5090637;28;20204;-70
2022/01/01 01:39:54;;;;;;;4.90;4.37;;;10.70;99.90;;;;;;5091008;28;20223;-70
2022/01/01 01:42:22;;;;;;;4.83;3.70;;;10.70;99.90;;;;;;5090942;28;20291;-70
2022/01/01 01:44:53;;;;;;;4.87;3.70;;;10.70;99.90;;;;;;5090420;28;20303;-70
2022/01/01 01:47:28;;;;;;;5.03;3.40;;;10.80;99.90;;;;;;5090407;28;20313;-70
2022/01/01 01:49:55;;;;;;;3.93;3.53;;;10.80;99.90;;;;;;5091682;28;20210;-70
2022/01/01 01:52:23;;;;;;;3.97;3.57;;;10.70;99.90;;;;;;5091480;28;20204;-71
2022/01/01 01:54:51;;;;;;;5.93;4.67;;;10.70;99.90;;;;;;5091899;28;20244;-70
2022/01/01 01:57:19;;;;;;;4.67;3.60;;;10.60;99.90;;;;;;5091332;28;20232;-71
2022/01/01 01:59:46;;;;;;;4.87;4.37;;;10.60;99.90;;;;;;5091442;28;20227;-70
2022/01/01 02:02:14;;;;;;;4.27;3.60;;;10.70;99.90;;;;;;5090731;28;20200;-69
2022/01/01 02:04:41;;;;;;;3.77;3.17;;;10.60;99.90;;;;;;5091259;28;20205;-70
2022/01/01 02:07:08;;;;;;;3.37;3.07;;;10.60;99.90;;;;;;5094937;28;20227;-70
2022/01/01 02:09:36;;;;;;;3.87;3.37;;;10.60;99.90;;;;;;5100475;28;20204;-70
2022/01/01 02:12:04;;;;;;;4.60;3.30;;;10.60;99.90;;;;;;5090955;28;20583;-70
2022/01/01 02:14:47;;;;;;;4.40;3.80;;;10.60;99.90;;;;;;5090980;28;20204;-72
2022/01/01 02:17:16;;;;;;;3.80;2.97;;;10.60;99.90;;;;;;5090928;28;20247;-71
2022/01/01 02:19:54;;;;;;;3.83;3.30;;;10.60;99.90;;;;;;5091247;28;20670;-70
2022/01/01 02:22:24;;;;;;;3.40;3.10;;;10.60;99.90;;;;;;5089875;28;20208;-71
2022/01/01 02:24:50;;;;;;;3.73;3.23;;;10.60;99.90;;;;;;5090602;28;20204;-69
2022/01/01 02:27:18;;;;;;;3.23;2.93;;;10.70;99.90;;;;;;5091152;28;20229;-70
2022/01/01 02:29:45;;;;;;;3.50;3.10;;;10.60;99.90;;;;;;5091389;28;20482;-71
2022/01/01 02:32:15;;;;;;;4.27;3.70;;;10.50;99.90;;;;;;5091150;28;20205;-71
2022/01/01 02:34:42;;;;;;;3.83;3.40;;;10.50;99.90;;;;;;5090294;28;20307;-70
2022/01/01 02:37:08;;;;;;;3.83;3.30;;;10.50;99.90;;;;;;5090103;28;20637;-71
2022/01/01 02:39:37;;;;;;;4.93;3.77;;;10.50;99.90;;;;;;5090529;28;20201;-71
2022/01/01 02:42:08;;;;;;;4.37;3.87;;;10.50;99.90;;;;;;5090779;28;20215;-70
2022/01/01 02:44:35;;;;;;;5.30;3.97;;;10.50;99.90;;;;;;5091211;28;20745;-71
2022/01/01 02:47:02;;;;;;;5.37;3.63;;;10.50;99.90;;;;;;5090691;28;20320;-71
2022/01/01 02:49:32;;;;;;;4.10;3.50;;;10.40;99.90;;;;;;5090728;28;20215;-70
2022/01/01 02:51:59;;;;;;;4.43;3.17;;;10.50;99.90;;;;;;5091083;28;20268;-70
2022/01/01 02:54:26;;;;;;;4.63;3.90;;;10.40;99.90;;;;;;5095599;28;20200;-70
2022/01/01 02:56:54;;;;;;;4.17;3.47;;;10.40;99.90;;;;;;5099616;28;20225;-70
2022/01/01 02:59:21;;;;;;;5.43;4.10;;;10.40;99.90;;;;;;5094122;28;20276;-71
2022/01/01 03:01:48;;;;;;;5.63;3.70;;;10.40;99.90;;;;;;5094667;28;20204;-70
2022/01/01 03:04:15;;;;;;;4.90;4.20;;;10.40;99.90;;;;;;5093350;28;20296;-70
2022/01/01 03:06:42;;;;;;;4.90;3.93;;;10.40;99.90;;;;;;5093851;28;20224;-70
2022/01/01 03:09:09;;;;;;;5.03;3.63;;;10.40;99.90;;;;;;5094394;28;20303;-70
2022/01/01 03:11:36;;;;;;;5.13;4.13;;;10.40;99.90;;;;;;5093940;28;20239;-70
2022/01/01 03:14:04;;;;;;;4.40;3.73;;;10.40;99.90;;;;;;5094846;28;20212;-70
2022/01/01 03:16:31;;;;;;;4.30;3.87;;;10.30;99.90;;;;;;5094130;28;20636;-70
2022/01/01 03:19:01;;;;;;;5.40;4.37;;;10.30;99.90;;;;;;5093607;28;20213;-70
2022/01/01 03:21:28;;;;;;;7.13;4.23;;;10.30;99.90;;;;;;5093480;28;20680;-70
2022/01/01 03:23:55;;;;;;;4.37;3.90;;;10.30;99.90;;;;;;5094051;28;20622;-70
2022/01/01 03:26:21;;;;;;;5.27;3.90;;;10.20;99.90;;;;;;5094268;28;20244;-70
2022/01/01 03:28:48;;;;;;;4.90;4.00;;;10.20;99.90;;;;;;5093619;28;20250;-69
2022/01/01 03:31:16;;;;;;;4.33;3.77;;;10.20;99.90;;;;;;5093580;28;20204;-70
2022/01/01 03:33:43;;;;;;;4.97;4.30;;;10.30;99.90;;;;;;5094771;28;20235;-70
2022/01/01 03:36:10;;;;;;;5.27;4.07;;;10.20;99.90;;;;;;5093654;28;20340;-71
2022/01/01 03:38:37;;;;;;;5.30;4.03;;;10.10;99.90;;;;;;5093560;28;20737;-70
2022/01/01 03:41:04;;;;;;;4.60;3.43;;;10.20;99.90;;;;;;5093697;28;20868;-70
2022/01/01 03:43:31;;;;;;;4.33;3.63;;;10.20;99.90;;;;;;5093946;28;20737;-71
2022/01/01 03:45:58;;;;;;;4.43;3.30;;;10.20;99.90;;;;;;5105450;28;20294;-70
2022/01/01 03:48:26;;;;;;;4.13;3.13;;;10.20;99.90;;;;;;5093230;28;20303;-71
2022/01/01 03:50:53;;;;;;;4.03;2.63;;;10.20;99.90;;;;;;5093661;28;20406;-70
2022/01/01 03:53:21;;;;;;;2.80;2.43;;;10.20;99.90;;;;;;5094284;28;20219;-71
2022/01/01 03:55:48;;;;;;;2.90;2.50;;;10.20;99.90;;;;;;5099535;28;20299;-71
2022/01/01 03:58:15;;;;;;;3.03;2.30;;;10.20;99.90;;;;;;5094426;28;20233;-71
2022/01/01 04:00:41;;;;;;;3.33;2.50;;;10.10;99.90;;;;;;5093071;28;20219;-70
2022/01/01 04:03:16;;;;;;;3.30;2.47;;;10.10;99.90;;;;;;5094400;28;20204;-71
2022/01/01 04:05:45;;;;;;;3.60;2.17;;;10.10;99.90;;;;;;5095592;28;20220;-71
2022/01/01 04:08:13;;;;;;;2.20;2.00;;;10.10;99.90;;;;;;5092475;28;20779;-71
2022/01/01 04:10:40;;;;;;;2.77;2.33;;;10.10;99.90;;;;;;5093527;28;20251;-70
2022/01/01 04:13:10;;;;;;;2.40;1.83;;;10.10;99.90;;;;;;5093619;28;20205;-70
2022/01/01 04:15:38;;;;;;;2.10;1.90;;;10.10;99.90;;;;;;5093061;28;20223;-71
2022/01/01 04:18:09;;;;;;;1.80;1.70;;;10.00;99.90;;;;;;5092427;28;20200;-70
2022/01/01 04:20:36;;;;;;;2.47;1.83;;;10.00;99.90;;;;;;5089965;28;20208;-70
2022/01/01 04:23:09;;;;;;;4.87;1.70;;;10.00;99.90;;;;;;5092790;28;20203;-70
2022/01/01 04:25:36;;;;;;;2.63;2.00;;;10.00;99.90;;;;;;5092141;28;20204;-69
2022/01/01 04:28:03;;;;;;;2.40;2.00;;;10.00;99.90;;;;;;5092834;28;20242;-70
2022/01/01 04:30:30;;;;;;;3.13;2.17;;;10.00;99.90;;;;;;5093213;28;20205;-69
2022/01/01 04:32:57;;;;;;;4.43;2.23;;;10.00;99.90;;;;;;5096618;28;20291;-71
2022/01/01 04:35:24;;;;;;;2.80;2.20;;;10.00;99.90;;;;;;5099653;28;20204;-70
2022/01/01 04:37:51;;;;;;;2.20;2.00;;;10.00;99.90;;;;;;5092059;28;20291;-70
2022/01/01 04:40:19;;;;;;;2.13;1.93;;;10.00;99.90;;;;;;5091898;28;20205;-71
2022/01/01 04:42:46;;;;;;;2.13;1.83;;;10.00;99.90;;;;;;5092489;28;20201;-70
2022/01/01 04:45:13;;;;;;;2.43;2.17;;;9.90;99.90;;;;;;5091787;28;20208;-70
2022/01/01 04:47:40;;;;;;;2.63;2.03;;;9.90;99.90;;;;;;5091087;28;20228;-71
2022/01/01 04:50:07;;;;;;;2.47;2.00;;;9.90;99.90;;;;;;5091982;28;20223;-71
2022/01/01 04:52:34;;;;;;;2.57;2.03;;;9.90;99.90;;;;;;5091214;28;20200;-71
2022/01/01 04:55:01;;;;;;;2.23;1.70;;;9.90;99.90;;;;;;5097214;28;20239;-69
2022/01/01 04:57:30;;;;;;;2.00;1.80;;;9.90;99.90;;;;;;5092194;28;20223;-70
2022/01/01 04:59:57;;;;;;;1.60;1.50;;;9.90;99.90;;;;;;5091517;28;20653;-70
2022/01/01 05:02:26;;;;;;;2.30;1.60;;;9.80;99.90;;;;;;5091478;28;20204;-70
2022/01/01 05:04:53;;;;;;;2.40;1.90;;;9.80;99.90;;;;;;5092428;28;20295;-69
2022/01/01 05:07:19;;;;;;;2.67;2.13;;;9.80;99.90;;;;;;5077620;28;20221;-69
2022/01/01 05:09:46;;;;;;;2.13;1.83;;;9.80;99.90;;;;;;5091553;28;20216;-70
2022/01/01 05:12:13;;;;;;;2.87;1.97;;;9.80;99.90;;;;;;5091762;28;20204;-69
2022/01/01 05:14:41;;;;;;;4.20;1.80;;;9.80;99.90;;;;;;5091447;28;20545;-69
2022/01/01 05:17:08;;;;;;;1.33;1.23;;;9.70;99.90;;;;;;5091327;28;20204;-70
2022/01/01 05:19:35;;;;;;;2.13;1.57;;;9.70;99.90;;;;;;5091640;28;20196;-70
2022/01/01 05:22:02;;;;;;;1.93;1.40;;;9.70;99.90;;;;;;5091748;28;20188;-70
2022/01/01 05:24:29;;;;;;;1.17;1.07;;;9.60;99.90;;;;;;5092387;28;20200;-70
2022/01/01 05:26:56;;;;;;;1.83;1.30;;;9.60;99.90;;;;;;5090505;28;20573;-69
2022/01/01 05:29:22;;;;;;;1.80;1.20;;;9.60;99.90;;;;;;5091381;28;20608;-71
2022/01/01 05:31:51;;;;;;;1.50;1.40;;;9.60;99.90;;;;;;5091070;28;20214;-70
2022/01/01 05:34:17;;;;;;;1.37;1.20;;;9.50;99.90;;;;;;5091098;28;20196;-70
2022/01/01 05:36:44;;;;;;;2.13;1.30;;;9.60;99.90;;;;;;5082991;28;20296;-69
2022/01/01 05:39:11;;;;;;;2.07;1.40;;;9.60;99.90;;;;;;5090783;28;20586;-71
2022/01/01 05:41:38;;;;;;;2.00;1.50;;;9.60;99.90;;;;;;5091308;28;20212;-69
2022/01/01 05:44:05;;;;;;;1.67;1.23;;;9.60;99.90;;;;;;5096037;28;20574;-70
2022/01/01 05:46:32;;;;;;;4.33;2.00;;;9.60;99.90;;;;;;5090372;28;20247;-69
2022/01/01 05:49:00;;;;;;;3.13;2.33;;;9.50;99.90;;;;;;5090289;28;20287;-70
2022/01/01 05:51:27;;;;;;;2.43;1.87;;;9.50;99.90;;;;;;5091183;28;20256;-71
2022/01/01 05:53:54;;;;;;;3.77;2.60;;;9.50;99.90;;;;;;5090268;28;20625;-69
2022/01/01 05:56:21;;;;;;;3.77;2.37;;;9.50;99.90;;;;;;5090965;28;20240;-70
2022/01/01 05:58:48;;;;;;;3.00;2.30;;;9.50;99.90;;;;;;5091501;28;20428;-71
2022/01/01 06:01:14;;;;;;;2.73;2.10;;;9.40;99.90;;;;;;5090931;28;20566;-70
2022/01/01 06:03:41;;;;;;;2.90;2.60;;;9.50;99.90;;;;;;5090253;28;20233;-70
2022/01/01 06:06:09;;;;;;;3.73;2.17;;;9.50;99.90;;;;;;5090608;28;20216;-70
2022/01/01 06:08:36;;;;;;;2.47;2.27;;;9.40;99.90;;;;;;5089980;28;20267;-69
2022/01/01 06:11:03;;;;;;;3.33;2.50;;;9.40;99.90;;;;;;5091675;28;20420;-71
2022/01/01 06:13:30;;;;;;;2.90;2.30;;;9.40;99.90;;;;;;5090864;28;20211;-71
2022/01/01 06:15:57;;;;;;;2.70;2.20;;;9.40;99.90;;;;;;5091018;28;20212;-71
2022/01/01 06:18:23;;;;;;;2.20;2.00;;;9.40;99.90;;;;;;5090307;28;20218;-71
2022/01/01 06:20:50;;;;;;;3.30;2.37;;;9.40;99.90;;;;;;5091063;28;20327;-70
2022/01/01 06:23:19;;;;;;;1.93;1.77;;;9.40;99.90;;;;;;5090408;28;20218;-71
2022/01/01 06:25:45;;;;;;;1.70;1.60;;;9.30;99.90;;;;;;5091238;28;20200;-71
2022/01/01 06:28:13;;;;;;;1.60;1.50;;;9.30;99.90;;;;;;5090434;28;20264;-70
2022/01/01 06:30:39;;;;;;;1.63;1.43;;;9.30;99.90;;;;;;5091134;28;20296;-71
2022/01/01 06:33:14;;;;;;;1.60;1.50;;;9.30;99.90;;;;;;5094462;28;20230;-71
2022/01/01 06:35:41;;;;;;;1.60;1.50;;;9.30;99.90;;;;;;5094717;28;20218;-71
2022/01/01 06:38:08;;;;;;;1.63;1.40;;;9.30;99.90;;;;;;5094552;28;20207;-71
2022/01/01 06:40:39;;;;;;;1.70;1.60;;;9.30;99.90;;;;;;5103785;28;20286;-70
2022/01/01 06:43:06;;;;;;;1.90;1.60;;;9.30;99.90;;;;;;5081171;28;20223;-70
2022/01/01 06:45:33;;;;;;;1.70;1.60;;;9.30;99.90;;;;;;5095129;28;20212;-70
2022/01/01 06:48:00;;;;;;;3.10;2.07;;;9.30;99.90;;;;;;5094047;28;20224;-70
2022/01/01 06:50:28;;;;;;;2.60;2.40;;;9.30;99.90;;;;;;5094045;28;20192;-70
2022/01/01 06:52:55;;;;;;;2.17;1.77;;;9.30;99.90;;;;;;5093725;28;20212;-70
2022/01/01 06:55:22;;;;;;;2.90;2.10;;;9.30;99.90;;;;;;5094353;28;20205;-70
2022/01/01 06:57:50;;;;;;;2.47;2.00;;;9.30;99.90;;;;;;5093863;28;20217;-71
2022/01/01 07:00:18;;;;;;;2.80;2.17;;;9.30;99.90;;;;;;5092484;28;20314;-70
2022/01/01 07:02:47;;;;;;;2.30;2.10;;;9.30;99.90;;;;;;5104271;28;20679;-70
2022/01/01 07:05:15;;;;;;;2.27;2.13;;;9.30;99.90;;;;;;5093854;28;21545;-70
2022/01/01 07:07:42;;;;;;;2.53;2.17;;;9.30;99.90;;;;;;5093835;28;20235;-71
2022/01/01 07:10:11;;;;;;;2.40;2.00;;;9.30;99.90;;;;;;5094014;28;20201;-70
2022/01/01 07:12:39;;;;;;;3.27;2.03;;;9.30;99.90;;;;;;5092623;28;20320;-70
2022/01/01 07:15:09;;;;;;;2.57;2.30;;;9.40;99.90;;;;;;5093967;28;20673;-69
2022/01/01 07:17:36;;;;;;;2.93;2.37;;;9.40;99.90;;;;;;5098253;28;20203;-70
2022/01/01 07:20:04;;;;;;;3.27;2.30;;;9.30;99.90;;;;;;5092621;28;20708;-70
2022/01/01 07:22:31;;;;;;;8.40;2.73;;;9.40;99.90;;;;;;5094330;28;20211;-69
2022/01/01 07:24:57;;;;;;;2.37;2.17;;;9.30;99.90;;;;;;5094093;28;20209;-71
2022/01/01 07:27:24;;;;;;;2.90;2.40;;;9.30;99.90;;;;;;5090857;28;20209;-70
2022/01/01 07:29:51;;;;;;;2.93;2.23;;;9.30;99.90;;;;;;5092545;28;20751;-70
2022/01/01 07:32:19;;;;;;;2.20;2.00;;;9.30;99.90;;;;;;5094478;28;20214;-68
2022/01/01 07:34:46;;;;;;;2.03;1.70;;;9.40;99.90;;;;;;5093273;28;20281;-70
2022/01/01 07:37:13;;;;;;;1.83;1.70;;;9.20;99.90;;;;;;5093364;28;20709;-71
2022/01/01 07:39:40;;;;;;;2.27;1.90;;;9.30;99.90;;;;;;5092741;28;20634;-71
2022/01/01 07:42:07;;;;;;;1.87;1.60;;;9.30;99.90;;;;;;5097187;28;20208;-70
2022/01/01 07:44:34;;;;;;;2.87;1.77;;;9.30;99.90;;;;;;5090978;28;20215;-71
2022/01/01 07:47:02;;;;;;;1.50;1.23;;;9.30;99.90;;;;;;5096135;28;20294;-72
2022/01/01 07:49:30;;;;;;;1.93;1.47;;;9.30;99.90;;;;;;5093134;28;20228;-71
2022/01/01 07:51:57;;;;;;;1.60;1.00;;;9.40;99.90;;;;;;5092932;28;20291;-72
2022/01/01 07:54:24;;;;;;;2.00;1.37;;;9.30;99.90;;;;;;5096887;28;20205;-73
2022/01/01 07:56:51;;;;;;;1.40;1.30;;;9.40;99.90;;;;;;5092298;28;20703;-71
2022/01/01 07:59:18;;;;;;;2.63;1.80;;;9.40;99.90;;;;;;5092580;28;20200;-72
2022/01/01 08:01:45;;;;;;;2.43;1.80;;;9.30;99.90;;;;;;5092425;28;20216;-70
2022/01/01 08:04:11;;;;;;;1.70;1.53;;;9.40;99.90;;;;;;5093373;28;20205;-71
2022/01/01 08:06:40;;;;;;;1.50;1.40;;;9.40;99.90;;;;;;5092467;28;20232;-70
2022/01/01 08:09:06;;;;;;;2.43;1.80;;;9.40;99.90;;;;;;5092071;28;20220;-72
2022/01/01 08:11:33;;;;;;;1.90;1.60;;;9.60;99.90;;;;;;5091420;28;20208;-73
2022/01/01 08:14:00;;;;;;;2.23;1.53;;;9.60;99.90;;;;;;5092196;28;20205;-71
2022/01/01 08:16:27;;;;;;;2.23;1.70;;;9.70;99.90;;;;;;5095889;28;20224;-72
2022/01/01 08:18:54;;;;;;;2.20;1.60;;;9.70;99.90;;;;;;5092504;28;20677;-70
2022/01/01 08:21:21;;;;;;;1.93;1.30;;;9.70;99.90;;;;;;5093374;28;20208;-69
2022/01/01 08:23:49;;;;;;;2.60;1.43;;;9.70;99.90;;;;;;5095448;28;20205;-69
2022/01/01 08:26:16;;;;;;;1.40;1.30;;;9.70;99.90;;;;;;5093050;28;20205;-69
2022/01/01 08:28:43;;;;;;;3.07;1.50;;;9.70;99.90;;;;;;5092298;28;20236;-68
2022/01/01 08:31:10;;;;;;;1.70;1.40;;;9.60;99.90;;;;;;5094658;28;20218;-68
2022/01/01 08:33:37;;;;;;;1.93;1.10;;;9.60;99.90;;;;;;5092442;28;20216;-70
2022/01/01 08:36:04;;;;;;;1.50;1.40;;;9.60;99.90;;;;;;5093446;28;20211;-69
2022/01/01 08:38:32;;;;;;;1.87;1.30;;;9.60;99.90;;;;;;5092878;28;20200;-70
2022/01/01 08:41:00;;;;;;;2.07;1.57;;;9.60;99.90;;;;;;5091994;28;20587;-69
2022/01/01 08:43:27;;;;;;;1.67;1.40;;;9.60;99.90;;;;;;5092401;28;20204;-69
2022/01/01 08:45:54;;;;;;;1.87;1.50;;;9.60;99.90;;;;;;5091964;28;20676;-72
2022/01/01 08:48:22;;;;;;;2.40;2.20;;;9.60;99.90;;;;;;5092187;28;20220;-70
2022/01/01 08:50:48;;;;;;;2.57;1.93;;;9.50;99.90;;;;;;5095618;28;20207;-71
2022/01/01 08:53:16;;;;;;;2.23;2.03;;;9.60;99.90;;;;;;5103753;28;20204;-71
2022/01/01 08:55:42;;;;;;;2.87;2.20;;;9.50;99.90;;;;;;5097141;28;20230;-69
2022/01/01 08:58:11;;;;;;;3.13;2.40;;;9.50;99.90;;;;;;5094526;28;20216;-71
2022/01/01 09:00:37;;;;;;;4.07;2.47;;;9.60;99.90;;;;;;5091280;28;20204;-68
2022/01/01 09:03:04;;;;;;;3.50;3.00;;;9.60;99.90;;;;;;5090786;28;20204;-71
2022/01/01 09:05:31;;;;;;;3.20;2.90;;;9.60;99.90;;;;;;5092394;28;20302;-70
2022/01/01 09:07:59;;;;;;;3.63;3.30;;;9.60;99.90;;;;;;5091657;28;20227;-72
2022/01/01 09:10:25;;;;;;;3.90;3.27;;;9.60;99.90;;;;;;5089644;28;20197;-69
2022/01/01 09:12:52;;;;;;;3.90;3.40;;;9.60;99.90;;;;;;5086418;28;20209;-67
2022/01/01 09:15:20;;;;;;;3.67;3.10;;;9.60;99.90;;;;;;5091343;28;20293;-70
2022/01/01 09:17:47;;;;;;;4.13;3.73;;;9.60;99.90;;;;;;5091086;28;20212;-70
2022/01/01 09:20:14;;;;;;;4.43;4.03;;;9.60;99.90;;;;;;5091286;28;20684;-68
2022/01/01 09:22:41;;;;;;;4.57;4.17;;;9.60;99.90;;;;;;5094002;28;20212;-70
2022/01/01 09:25:08;;;;;;;5.20;4.20;;;9.60;99.90;;;;;;5096013;28;20289;-70
2022/01/01 09:27:35;;;;;;;4.77;4.30;;;9.60;99.90;;;;;;5091864;28;20219;-72
2022/01/01 09:30:02;;;;;;;5.33;4.83;;;9.60;99.90;;;;;;5092371;28;20220;-68
2022/01/01 09:32:30;;;;;;;4.97;4.57;;;9.60;99.90;;;;;;5093861;28;20207;-69
2022/01/01 09:34:57;;;;;;;5.43;4.93;;;9.60;99.90;;;;;;5091732;28;20261;-70
2022/01/01 09:37:24;;;;;;;5.77;5.17;;;9.70;99.90;;;;;;5091860;28;20728;-70
2022/01/01 09:39:51;;;;;;;6.93;5.77;;;9.70;99.90;;;;;;5091766;28;20218;-72
2022/01/01 09:42:21;;;;;;;6.97;6.27;;;9.70;99.90;;;;;;5091242;28;20347;-70
2022/01/01 09:44:48;;;;;;;5.83;5.23;;;9.80;99.90;;;;;;5090900;28;20200;-69
2022/01/01 09:47:16;;;;;;;5.70;5.20;;;9.80;99.90;;;;;;5089600;28;20209;-70
2022/01/01 09:49:44;;;;;;;5.37;4.87;;;9.80;99.90;;;;;;5096991;28;20228;-71
2022/01/01 09:52:13;;;;;;;5.47;4.97;;;9.80;99.90;;;;;;5102935;28;20204;-68
2022/01/01 09:54:40;;;;;;;5.27;4.83;;;9.80;99.90;;;;;;5090780;28;20205;-70
2022/01/01 09:57:07;;;;;;;5.20;4.70;;;9.90;99.90;;;;;;5090691;28;20234;-69
2022/01/01 09:59:34;;;;;;;5.10;4.70;;;9.90;99.90;;;;;;5090047;28;20212;-70
2022/01/01 10:02:02;;;;;;;5.32;4.82;;;9.90;99.90;;;;;;5090979;28;20538;-69
2022/01/01 10:04:41;;;;;;;6.67;5.33;;;9.90;99.90;;;;;;5090892;28;20295;-70
2022/01/01 10:07:09;;;;;;;6.20;5.65;;;10.00;99.90;;;;;;5086511;28;21218;-67
2022/01/01 10:09:37;;;;;;;4.97;4.47;;;10.00;99.90;;;;;;5089390;28;20227;-66
2022/01/01 10:12:06;;;;;;;5.30;4.80;;;10.00;99.90;;;;;;5088185;28;20216;-66
2022/01/01 10:14:37;;;;;;;5.20;4.70;;;10.10;99.90;;;;;;5090393;28;20205;-66
2022/01/01 10:17:13;;;;;;;4.60;4.20;;;10.10;99.90;;;;;;5090228;28;20682;-67
2022/01/01 10:19:41;;;;;;;5.53;5.13;;;10.20;99.90;;;;;;5084369;28;20940;-67
2022/01/01 10:22:13;;;;;;;6.00;5.50;;;10.20;99.90;;;;;;5093684;28;20897;-67
2022/01/01 10:27:46;;;;;;;4.83;4.10;;;10.20;99.90;;;;;;5089830;28;20200;-68
2022/01/01 10:30:21;;;;;;;4.73;4.33;;;10.30;99.90;;;;;;5089583;28;20236;-74
2022/01/01 10:33:02;;;;;;;5.13;4.63;;;10.40;99.90;;;;;;5091341;28;20641;-75
2022/01/01 10:35:33;;;;;;;6.53;4.87;;;10.40;99.90;;;;;;5091352;28;20296;-75
2022/01/01 10:38:05;;;;;;;5.00;4.60;;;10.50;99.90;;;;;;5083711;28;20671;-75
2022/01/01 10:40:34;;;;;;;6.17;5.27;;;10.60;99.90;;;;;;5092203;28;20219;-73
2022/01/01 10:43:01;;;;;;;6.43;5.80;;;10.60;99.90;;;;;;5092020;28;20230;-74
2022/01/01 10:45:37;;;;;;;5.63;5.13;;;10.60;99.90;;;;;;5092212;28;20296;-74
2022/01/01 10:48:05;;;;;;;5.80;5.30;;;10.60;99.90;;;;;;5092443;28;20266;-74
2022/01/01 10:50:33;;;;;;;5.63;5.10;;;10.70;99.90;;;;;;5100177;28;20221;-74
2022/01/01 10:53:12;;;;;;;5.27;4.77;;;10.70;99.90;;;;;;5092162;28;20634;-74
2022/01/01 10:55:43;;;;;;;4.57;4.10;;;10.70;99.90;;;;;;5092058;28;20201;-73
2022/01/01 10:58:16;;;;;;;3.40;3.10;;;10.70;99.90;;;;;;5092147;28;20222;-74
2022/01/01 11:00:44;;;;;;;4.20;3.90;;;10.70;99.90;;;;;;5092870;28;20208;-73
2022/01/01 11:03:15;;;;;;;3.87;3.57;;;10.60;99.90;;;;;;5098949;28;20211;-73
2022/01/01 11:05:42;;;;;;;3.93;3.53;;;10.50;99.90;;;;;;5090670;28;20213;-74
2022/01/01 11:08:11;;;;;;;3.67;3.20;;;10.40;99.90;;;;;;5092695;28;20591;-74
2022/01/01 11:10:40;;;;;;;3.43;3.13;;;10.40;99.90;;;;;;5103479;28;20229;-74
2022/01/01 11:13:08;;;;;;;2.67;2.47;;;10.40;99.90;;;;;;5092124;28;20219;-73
2022/01/01 11:15:35;;;;;;;3.23;2.90;;;10.30;99.90;;;;;;5091967;28;20303;-74
2022/01/01 11:18:02;;;;;;;2.97;2.63;;;10.30;99.90;;;;;;5092314;28;20247;-74
2022/01/01 11:20:33;;;;;;;3.00;2.70;;;10.30;99.90;;;;;;5094735;28;20289;-74
2022/01/01 11:23:04;;;;;;;3.80;2.47;;;10.20;99.90;;;;;;5106223;28;20212;-74
2022/01/01 11:25:34;;;;;;;2.47;2.27;;;10.30;99.90;;;;;;5095080;28;20204;-75
2022/01/01 11:28:01;;;;;;;2.40;2.20;;;10.20;99.90;;;;;;5094856;28;20252;-74
2022/01/01 11:30:30;;;;;;;2.20;1.90;;;10.20;99.90;;;;;;5094980;28;20219;-75
2022/01/01 11:33:02;;;;;;;2.43;2.23;;;10.10;99.90;;;;;;5096702;28;20571;-74
2022/01/01 11:35:31;;;;;;;2.30;1.93;;;10.10;99.90;;;;;;5100545;28;20219;-74
2022/01/01 11:38:01;;;;;;;1.63;1.53;;;10.10;99.90;;;;;;5094551;28;20208;-74
2022/01/01 11:40:33;;;;;;;2.47;1.77;;;10.10;99.90;;;;;;5094185;28;20201;-74
2022/01/01 11:43:02;;;;;;;2.70;2.10;;;10.10;99.90;;;;;;5098035;28;20250;-74
2022/01/01 11:45:44;;;;;;;1.57;1.33;;;10.10;99.90;;;;;;5093878;28;20216;-74
2022/01/01 11:48:36;;;;;;;1.43;1.30;;;10.10;99.90;;;;;;5094519;28;20694;-74
2022/01/01 11:51:33;;;;;;;1.50;1.30;;;10.00;99.90;;;;;;5096566;28;20260;-74
2022/01/01 11:54:16;;;;;;;1.97;1.60;;;10.10;99.90;;;;;;5093083;28;20519;-74
2022/01/01 11:57:01;;;;;;;2.00;1.70;;;10.00;99.90;;;;;;5092873;28;20585;-74
2022/01/01 11:59:32;;;;;;;2.63;1.53;;;10.00;99.90;;;;;;5094360;28;20271;-74
2022/01/01 12:02:00;;;;;;;2.10;1.57;;;10.00;99.90;;;;;;5093432;28;20203;-74
2022/01/01 12:04:31;;;;;;;3.73;1.60;;;10.00;99.90;;;;;;5093621;28;20200;-74
2022/01/01 12:07:00;;;;;;;2.63;1.80;;;9.90;99.90;;;;;;5093419;28;20201;-74
2022/01/01 12:09:27;;;;;;;2.93;1.37;;;10.00;99.90;;;;;;5093408;28;20224;-74
2022/01/01 12:11:57;;;;;;;1.77;1.40;;;9.90;99.90;;;;;;5092854;28;20220;-72
2022/01/01 12:14:25;;;;;;;1.90;1.40;;;9.90;99.90;;;;;;5098735;28;20549;-72
2022/01/01 12:16:55;;;;;;;1.80;1.23;;;9.90;99.90;;;;;;5098817;28;20220;-72
2022/01/01 12:19:24;;;;;;;4.73;1.73;;;10.00;99.90;;;;;;5093053;28;20200;-72
2022/01/01 12:22:04;;;;;;;2.23;1.30;;;10.00;99.90;;;;;;5092294;28;20228;-73
2022/01/01 12:24:35;;;;;;;1.37;1.00;;;10.00;99.90;;;;;;5086158;28;20699;-73
2022/01/01 12:27:11;;;;;;;1.33;1.20;;;10.00;99.90;;;;;;5103287;28;20215;-73
2022/01/01 12:29:38;;;;;;;1.47;1.00;;;10.00;99.90;;;;;;5093051;28;20268;-73
2022/01/01 12:32:08;;;;;;;2.07;1.20;;;10.00;99.90;;;;;;5093803;28;20658;-73
2022/01/01 12:34:36;;;;;;;1.40;0.90;;;10.10;99.90;;;;;;5094131;28;20212;-73
2022/01/01 12:37:07;;;;;;;1.10;1.00;;;10.20;99.90;;;;;;5093274;28;20737;-73
2022/01/01 12:39:58;;;;;;;2.30;1.50;;;10.20;99.90;;;;;;5092798;28;20211;-72
2022/01/01 12:42:30;;;;;;;2.13;1.20;;;10.30;99.90;;;;;;5088564;28;20208;-72
2022/01/01 12:45:00;;;;;;;1.60;1.30;;;10.20;99.90;;;;;;5090623;28;20213;-72
2022/01/01 12:47:29;;;;;;;1.23;1.00;;;10.20;99.90;;;;;;5092089;28;20300;-71
2022/01/01 12:49:59;;;;;;;1.37;1.10;;;10.20;99.90;;;;;;5092119;28;20240;-73
2022/01/01 12:52:27;;;;;;;1.50;1.13;;;10.20;99.90;;;;;;5091703;28;20219;-74
2022/01/01 12:54:54;;;;;;;1.83;1.20;;;10.20;99.90;;;;;;5092338;28;20616;-74
2022/01/01 12:57:21;;;;;;;2.07;1.57;;;10.10;99.90;;;;;;5091788;28;20231;-74
2022/01/01 12:59:48;;;;;;;1.47;1.00;;;10.10;99.90;;;;;;5091674;28;20653;-74